createdAt,value
2019-02-28T00:01:49.219Z,3.20
2019-02-28T00:04:18.244Z,3.10
2019-02-28T00:06:47.184Z,3.00
2019-02-28T00:09:16.523Z,2.90
2019-02-28T00:11:45.427Z,2.70
2019-02-28T00:14:14.373Z,2.60
2019-02-28T00:16:44.092Z,2.50
2019-02-28T00:19:13.060Z,2.30
2019-02-28T00:21:42.378Z,2.40
2019-02-28T00:24:11.290Z,2.40
2019-02-28T00:26:46.298Z,2.40
2019-02-28T00:29:10.773Z,2.40
2019-02-28T00:31:39.817Z,2.30
2019-02-28T00:34:08.656Z,2.30
2019-02-28T00:36:37.689Z,2.20
2019-02-28T00:39:07.224Z,2.20
2019-02-28T00:41:36.529Z,2.30
2019-02-28T00:44:05.537Z,2.30
2019-02-28T00:46:34.740Z,2.20
2019-02-28T00:49:03.773Z,2.30
2019-02-28T00:51:32.693Z,2.20
2019-02-28T00:54:01.656Z,2.20
2019-02-28T00:56:30.948Z,2.20
2019-02-28T00:59:00.448Z,2.10
2019-02-28T01:01:30.428Z,2.10
2019-02-28T01:04:00.245Z,2.10
2019-02-28T01:06:29.100Z,2.20
2019-02-28T01:08:58.097Z,2.30
2019-02-28T01:11:27.348Z,2.30
2019-02-28T01:13:58.054Z,2.30
2019-02-28T01:16:27.020Z,2.20
2019-02-28T01:18:55.865Z,2.10
2019-02-28T01:21:24.818Z,2.10
2019-02-28T01:23:53.780Z,2.20
2019-02-28T01:26:22.816Z,2.10
2019-02-28T01:28:52.101Z,2.10
2019-02-28T01:31:21.096Z,2.00
2019-02-28T01:33:50.015Z,1.80
2019-02-28T01:36:18.942Z,1.80
2019-02-28T01:38:47.906Z,1.90
2019-02-28T01:41:16.731Z,2.00
2019-02-28T01:43:45.601Z,2.00
2019-02-28T01:46:20.770Z,2.00
2019-02-28T01:48:50.008Z,1.90
2019-02-28T01:51:18.965Z,1.90
2019-02-28T01:53:50.411Z,1.90
2019-02-28T01:56:18.647Z,2.00
2019-02-28T01:58:50.420Z,2.10
2019-02-28T02:01:18.512Z,2.00
2019-02-28T02:03:47.709Z,2.00
2019-02-28T02:06:16.646Z,1.90
2019-02-28T02:08:45.944Z,1.80
2019-02-28T02:11:15.045Z,1.80
2019-02-28T02:13:43.897Z,1.70
2019-02-28T02:16:12.847Z,1.70
2019-02-28T02:18:43.398Z,1.80
2019-02-28T02:21:12.437Z,1.70
2019-02-28T02:23:41.402Z,1.70
2019-02-28T02:26:11.250Z,1.70
2019-02-28T02:28:40.848Z,1.80
2019-02-28T02:31:09.807Z,1.70
2019-02-28T02:33:38.568Z,1.60
2019-02-28T02:36:07.563Z,1.70
2019-02-28T02:38:41.489Z,1.80
2019-02-28T02:41:07.334Z,1.80
2019-02-28T02:43:36.119Z,1.90
2019-02-28T02:46:04.952Z,2.00
2019-02-28T02:48:33.737Z,2.10
2019-02-28T02:51:02.513Z,2.10
2019-02-28T02:53:31.408Z,2.00
2019-02-28T02:56:03.864Z,1.80
2019-02-28T02:58:31.197Z,1.70
2019-02-28T03:01:00.011Z,1.60
2019-02-28T03:03:28.807Z,1.50
2019-02-28T03:05:57.644Z,1.50
2019-02-28T03:08:26.534Z,1.50
2019-02-28T03:10:55.322Z,1.60
2019-02-28T03:13:24.097Z,1.70
2019-02-28T03:15:53.231Z,1.70
2019-02-28T03:18:22.320Z,1.60
2019-02-28T03:20:51.134Z,1.70
2019-02-28T03:23:20.103Z,1.70
2019-02-28T03:25:49.209Z,1.80
2019-02-28T03:28:17.963Z,1.70
2019-02-28T03:30:46.797Z,1.70
2019-02-28T03:33:27.366Z,1.70
2019-02-28T03:35:46.082Z,1.80
2019-02-28T03:38:14.885Z,1.80
2019-02-28T03:40:43.730Z,1.80
2019-02-28T03:43:13.070Z,1.90
2019-02-28T03:45:41.906Z,1.80
2019-02-28T03:48:10.706Z,1.80
2019-02-28T03:50:39.731Z,1.80
2019-02-28T03:53:08.798Z,1.80
2019-02-28T03:55:40.669Z,1.60
2019-02-28T03:58:08.298Z,1.50
2019-02-28T04:00:37.187Z,1.30
2019-02-28T04:03:06.065Z,1.30
2019-02-28T04:05:34.903Z,1.10
2019-02-28T04:08:03.741Z,1.00
2019-02-28T04:10:32.566Z,1.00
2019-02-28T04:13:01.469Z,1.10
2019-02-28T04:15:30.383Z,1.30
2019-02-28T04:18:03.302Z,1.50
2019-02-28T04:20:35.935Z,1.60
2019-02-28T04:23:01.290Z,1.70
2019-02-28T04:25:30.171Z,1.90
2019-02-28T04:27:59.202Z,2.00
2019-02-28T04:30:32.120Z,2.10
2019-02-28T04:33:01.692Z,2.20
2019-02-28T04:35:31.440Z,2.20
2019-02-28T04:38:00.524Z,2.40
2019-02-28T04:40:29.296Z,2.50
2019-02-28T04:42:58.355Z,2.60
2019-02-28T04:45:27.215Z,2.70
2019-02-28T04:47:56.060Z,2.70
2019-02-28T04:50:24.887Z,2.70
2019-02-28T04:52:53.682Z,2.80
2019-02-28T04:55:22.467Z,2.80
2019-02-28T04:57:52.233Z,2.70
2019-02-28T05:00:21.351Z,2.70
2019-02-28T05:02:53.856Z,2.80
2019-02-28T05:05:20.890Z,2.80
2019-02-28T05:07:49.674Z,2.80
2019-02-28T05:10:19.295Z,2.90
2019-02-28T05:12:49.056Z,2.80
2019-02-28T05:17:06.506Z,2.80
2019-02-28T05:18:52.894Z,2.80
2019-02-28T05:21:21.854Z,2.70
2019-02-28T05:23:50.659Z,2.70
2019-02-28T05:26:19.992Z,2.70
2019-02-28T05:28:50.479Z,2.80
2019-02-28T05:31:19.515Z,2.80
2019-02-28T05:33:48.758Z,2.80
2019-02-28T05:36:17.589Z,2.80
2019-02-28T05:38:49.710Z,2.90
2019-02-28T05:41:20.610Z,2.80
2019-02-28T05:43:49.878Z,2.90
2019-02-28T05:46:20.252Z,2.90
2019-02-28T05:48:49.594Z,2.90
2019-02-28T05:51:18.569Z,2.80
2019-02-28T05:53:47.427Z,2.80
2019-02-28T05:56:16.296Z,2.80
2019-02-28T05:58:45.092Z,2.80
2019-02-28T06:01:13.948Z,2.80
2019-02-28T06:03:43.325Z,2.80
2019-02-28T06:06:12.127Z,2.80
2019-02-28T06:08:41.222Z,2.90
2019-02-28T06:11:10.111Z,3.00
2019-02-28T06:13:38.946Z,3.00
2019-02-28T06:16:11.177Z,3.00
2019-02-28T06:18:38.610Z,3.10
2019-02-28T06:21:07.559Z,3.10
2019-02-28T06:23:36.394Z,3.20
2019-02-28T06:26:05.346Z,3.30
2019-02-28T06:28:34.110Z,3.40
2019-02-28T06:31:03.043Z,3.50
2019-02-28T06:33:33.695Z,3.50
2019-02-28T06:36:04.491Z,3.40
2019-02-28T06:38:32.940Z,3.50
2019-02-28T06:41:04.339Z,3.60
2019-02-28T06:43:32.971Z,3.70
2019-02-28T06:46:03.689Z,3.80
2019-02-28T06:48:32.528Z,3.80
2019-02-28T06:51:01.314Z,3.90
2019-02-28T06:53:33.783Z,3.90
2019-02-28T06:56:02.334Z,4.00
2019-02-28T06:58:33.322Z,4.10
2019-02-28T07:01:01.806Z,4.20
2019-02-28T07:03:30.557Z,4.30
2019-02-28T07:06:01.027Z,4.40
2019-02-28T07:08:30.394Z,4.60
2019-02-28T07:10:59.246Z,4.70
2019-02-28T07:13:29.007Z,4.80
2019-02-28T07:15:59.082Z,5.00
2019-02-28T07:18:28.298Z,5.10
2019-02-28T07:20:57.070Z,5.20
2019-02-28T07:23:26.681Z,5.30
2019-02-28T07:25:56.562Z,5.50
2019-02-28T07:28:25.623Z,5.70
2019-02-28T07:30:54.715Z,6.00
2019-02-28T07:33:23.687Z,6.10
2019-02-28T07:35:52.463Z,6.30
2019-02-28T07:38:21.634Z,6.40
2019-02-28T07:40:50.509Z,6.70
2019-02-28T07:43:19.302Z,7.00
2019-02-28T07:45:48.094Z,7.20
2019-02-28T07:48:16.881Z,7.50
2019-02-28T07:50:46.801Z,7.80
2019-02-28T07:53:16.570Z,8.20
2019-02-28T07:55:45.398Z,8.50
2019-02-28T07:58:14.191Z,8.90
2019-02-28T08:00:43.027Z,8.90
2019-02-28T08:03:12.092Z,9.20
2019-02-28T08:05:41.170Z,9.50
2019-02-28T08:08:10.024Z,9.90
2019-02-28T08:10:39.266Z,10.20
2019-02-28T08:13:08.128Z,10.40
2019-02-28T08:15:37.022Z,10.50
2019-02-28T08:18:06.060Z,10.20
2019-02-28T08:20:35.102Z,10.10
2019-02-28T08:23:03.981Z,10.30
2019-02-28T08:25:32.845Z,10.30
2019-02-28T08:28:01.734Z,10.40
2019-02-28T08:30:30.665Z,10.80
2019-02-28T08:32:59.617Z,10.80
2019-02-28T08:35:34.089Z,10.70
2019-02-28T08:37:59.477Z,10.90
2019-02-28T08:40:28.450Z,11.10
2019-02-28T08:42:57.286Z,11.40
2019-02-28T08:45:26.259Z,11.50
2019-02-28T08:47:56.877Z,11.70
2019-02-28T08:50:26.054Z,12.50
2019-02-28T08:52:54.999Z,13.10
2019-02-28T08:55:28.635Z,13.70
2019-02-28T08:57:57.678Z,13.70
2019-02-28T09:00:31.088Z,14.00
2019-02-28T09:02:55.531Z,14.10
2019-02-28T09:05:26.168Z,14.10
2019-02-28T09:07:55.155Z,14.10
2019-02-28T09:10:24.387Z,14.40
2019-02-28T09:12:53.313Z,14.90
2019-02-28T09:15:22.243Z,15.10
2019-02-28T09:17:51.298Z,15.30
2019-02-28T09:20:20.252Z,15.30
2019-02-28T09:22:49.387Z,15.60
2019-02-28T09:25:21.368Z,15.70
2019-02-28T09:27:48.959Z,16.20
2019-02-28T09:30:20.851Z,16.20
2019-02-28T09:32:49.813Z,15.90
2019-02-28T09:35:18.782Z,16.00
2019-02-28T09:37:47.664Z,16.10
2019-02-28T09:40:16.544Z,16.30
2019-02-28T09:42:47.989Z,16.40
2019-02-28T09:45:17.879Z,17.00
2019-02-28T09:47:46.786Z,17.10
2019-02-28T09:50:19.453Z,16.90
2019-02-28T09:52:48.111Z,16.30
2019-02-28T09:55:17.107Z,16.00
2019-02-28T09:57:46.027Z,15.80
2019-02-28T10:00:17.096Z,16.20
2019-02-28T10:02:46.331Z,16.00
2019-02-28T10:05:15.252Z,16.90
2019-02-28T10:07:44.126Z,17.30
2019-02-28T10:10:17.430Z,17.40
2019-02-28T10:12:45.654Z,17.70
2019-02-28T10:15:16.171Z,17.70
2019-02-28T10:17:45.095Z,18.00
2019-02-28T10:20:26.951Z,18.40
2019-02-28T10:22:55.466Z,18.60
2019-02-28T10:25:24.326Z,18.80
2019-02-28T10:27:54.668Z,18.50
2019-02-28T10:30:31.259Z,18.20
2019-02-28T10:32:54.535Z,18.30
2019-02-28T10:35:24.307Z,18.40
2019-02-28T10:37:57.460Z,18.90
2019-02-28T10:40:24.437Z,19.30
2019-02-28T10:42:53.365Z,19.70
2019-02-28T10:45:22.541Z,19.30
2019-02-28T10:47:51.779Z,19.30
2019-02-28T10:50:22.026Z,19.60
2019-02-28T10:52:50.907Z,20.00
2019-02-28T10:55:22.421Z,20.00
2019-02-28T10:57:51.326Z,20.00
2019-02-28T11:00:23.843Z,20.00
2019-02-28T11:02:54.182Z,19.70
2019-02-28T11:05:27.494Z,20.20
2019-02-28T11:07:56.724Z,20.30
2019-02-28T11:10:35.032Z,20.10
2019-02-28T11:13:00.490Z,20.40
2019-02-28T11:15:29.487Z,20.30
2019-02-28T11:17:58.545Z,20.20
2019-02-28T11:20:27.493Z,20.30
2019-02-28T11:22:56.483Z,20.50
2019-02-28T11:25:26.416Z,20.40
2019-02-28T11:27:55.332Z,21.00
2019-02-28T11:30:25.350Z,21.10
2019-02-28T11:32:54.431Z,21.20
2019-02-28T11:35:24.013Z,21.10
2019-02-28T11:37:53.051Z,21.40
2019-02-28T11:40:24.139Z,21.10
2019-02-28T11:42:53.178Z,21.00
2019-02-28T11:45:25.349Z,21.50
2019-02-28T11:47:56.009Z,21.40
2019-02-28T11:50:24.775Z,21.10
2019-02-28T11:52:53.730Z,21.00
2019-02-28T11:55:22.669Z,21.10
2019-02-28T11:57:52.316Z,21.30
2019-02-28T12:00:24.011Z,21.80
2019-02-28T12:02:53.771Z,21.80
2019-02-28T12:05:23.911Z,21.60
2019-02-28T12:07:52.790Z,22.10
2019-02-28T12:10:21.650Z,22.80
2019-02-28T12:12:50.575Z,22.50
2019-02-28T12:15:22.589Z,22.40
2019-02-28T12:17:51.350Z,21.60
2019-02-28T12:20:25.823Z,21.70
2019-02-28T12:22:50.885Z,22.10
2019-02-28T12:25:20.186Z,23.10
2019-02-28T12:27:49.011Z,23.50
2019-02-28T12:30:26.110Z,23.30
2019-02-28T12:32:55.306Z,23.40
2019-02-28T12:35:24.207Z,23.20
2019-02-28T12:37:54.044Z,23.10
2019-02-28T12:40:25.559Z,22.60
2019-02-28T12:42:54.642Z,22.40
2019-02-28T12:45:34.651Z,22.00
2019-02-28T12:48:03.615Z,21.90
2019-02-28T12:50:32.466Z,22.60
2019-02-28T12:53:01.336Z,23.30
2019-02-28T12:55:30.287Z,23.10
2019-02-28T12:57:59.087Z,23.00
2019-02-28T13:00:33.931Z,22.70
2019-02-28T13:03:02.736Z,22.30
2019-02-28T13:05:32.088Z,22.20
2019-02-28T13:08:01.061Z,22.60
2019-02-28T13:10:31.162Z,22.90
2019-02-28T13:13:06.466Z,22.60
2019-02-28T13:15:31.051Z,22.70
2019-02-28T13:17:59.923Z,23.20
2019-02-28T13:20:33.521Z,23.40
2019-02-28T13:23:01.226Z,23.20
2019-02-28T13:25:30.354Z,23.30
2019-02-28T13:27:59.396Z,23.60
2019-02-28T13:30:28.764Z,23.70
2019-02-28T13:32:57.761Z,23.70
2019-02-28T13:35:28.462Z,23.20
2019-02-28T13:37:57.723Z,23.20
2019-02-28T13:40:26.696Z,23.50
2019-02-28T13:42:55.554Z,23.20
2019-02-28T13:45:24.682Z,22.30
2019-02-28T13:47:53.554Z,22.00
2019-02-28T13:50:25.707Z,21.10
2019-02-28T13:52:54.491Z,20.40
2019-02-28T13:55:23.364Z,20.60
2019-02-28T13:57:52.263Z,20.60
2019-02-28T14:00:23.257Z,20.60
2019-02-28T14:02:57.066Z,20.70
2019-02-28T14:05:25.992Z,21.40
2019-02-28T14:07:54.990Z,22.00
2019-02-28T14:10:24.477Z,22.20
2019-02-28T14:12:57.064Z,22.50
2019-02-28T14:15:27.809Z,21.90
2019-02-28T14:17:56.654Z,21.50
2019-02-28T14:20:27.578Z,21.10
2019-02-28T14:22:56.313Z,21.50
2019-02-28T14:25:25.441Z,21.50
2019-02-28T14:27:56.980Z,21.40
2019-02-28T14:30:25.487Z,21.50
2019-02-28T14:32:54.452Z,21.60
2019-02-28T14:35:23.544Z,21.20
2019-02-28T14:37:55.650Z,21.00
2019-02-28T14:40:23.747Z,20.70
2019-02-28T14:42:52.752Z,20.10
2019-02-28T14:45:21.952Z,20.30
2019-02-28T14:47:56.833Z,21.00
2019-02-28T14:50:23.041Z,21.20
2019-02-28T14:52:53.282Z,21.90
2019-02-28T14:55:22.376Z,22.70
2019-02-28T14:57:51.579Z,22.60
2019-02-28T15:00:24.495Z,22.40
2019-02-28T15:02:53.364Z,22.80
2019-02-28T15:05:22.218Z,23.00
2019-02-28T15:07:51.648Z,23.30
2019-02-28T15:10:20.694Z,23.60
2019-02-28T15:12:49.705Z,23.30
2019-02-28T15:15:19.122Z,22.40
2019-02-28T15:17:48.496Z,22.10
2019-02-28T15:20:17.538Z,22.20
2019-02-28T15:22:46.490Z,22.00
2019-02-28T15:25:18.475Z,21.80
2019-02-28T15:27:47.303Z,21.80
2019-02-28T15:30:18.759Z,21.90
2019-02-28T15:32:50.724Z,22.20
2019-02-28T15:35:19.235Z,22.30
2019-02-28T15:37:48.059Z,22.10
2019-02-28T15:40:21.500Z,21.60
2019-02-28T15:42:49.952Z,21.00
2019-02-28T15:45:18.898Z,21.00
2019-02-28T15:47:47.879Z,21.10
2019-02-28T15:50:17.144Z,20.90
2019-02-28T15:52:46.272Z,20.80
2019-02-28T15:55:15.338Z,21.10
2019-02-28T15:57:44.563Z,21.20
2019-02-28T16:00:25.102Z,21.10
2019-02-28T16:02:54.150Z,20.90
2019-02-28T16:05:23.870Z,20.60
2019-02-28T16:07:53.206Z,20.20
2019-02-28T16:10:23.987Z,19.80
2019-02-28T16:12:53.154Z,19.50
2019-02-28T16:15:22.096Z,19.10
2019-02-28T16:17:51.150Z,18.80
2019-02-28T16:20:20.047Z,18.50
2019-02-28T16:22:52.150Z,18.10
2019-02-28T16:25:22.058Z,17.80
2019-02-28T16:27:51.198Z,17.50
2019-02-28T16:30:20.202Z,17.40
2019-02-28T16:32:50.142Z,17.30
2019-02-28T16:35:19.224Z,17.10
2019-02-28T16:37:48.043Z,17.00
2019-02-28T16:40:20.791Z,16.80
2019-02-28T16:42:48.878Z,16.70
2019-02-28T16:45:29.349Z,16.50
2019-02-28T16:47:59.583Z,16.40
2019-02-28T16:50:29.350Z,16.30
2019-02-28T16:52:58.228Z,16.10
2019-02-28T16:55:30.591Z,16.00
2019-02-28T16:57:58.110Z,15.90
2019-02-28T17:00:27.130Z,15.80
2019-02-28T17:02:55.957Z,15.60
2019-02-28T17:05:28.131Z,15.50
2019-02-28T17:07:55.443Z,15.40
2019-02-28T17:10:29.854Z,15.40
2019-02-28T17:13:29.818Z,15.40
2019-02-28T17:16:20.530Z,15.30
2019-02-28T17:18:49.569Z,15.20
2019-02-28T17:21:19.541Z,15.20
2019-02-28T17:23:48.443Z,15.10
2019-02-28T17:26:18.211Z,15.00
2019-02-28T17:29:06.464Z,15.00
2019-02-28T17:31:48.154Z,14.90
2019-02-28T17:34:23.657Z,14.80
2019-02-28T17:36:49.794Z,14.70
2019-02-28T17:39:18.779Z,14.70
2019-02-28T17:41:47.754Z,14.60
2019-02-28T17:45:10.160Z,14.60
2019-02-28T17:48:23.531Z,14.40
2019-02-28T17:50:59.535Z,14.40
2019-02-28T17:54:05.290Z,14.40
2019-02-28T17:57:09.312Z,14.40
2019-02-28T18:00:06.955Z,14.40
2019-02-28T18:03:00.817Z,14.40
2019-02-28T18:06:08.856Z,14.40
2019-02-28T18:09:12.714Z,14.40
2019-02-28T18:12:33.123Z,14.40
2019-02-28T18:15:16.582Z,14.40
2019-02-28T18:18:08.800Z,14.40
2019-02-28T18:21:25.886Z,14.20
2019-02-28T18:24:18.563Z,14.20
2019-02-28T18:27:32.421Z,14.10
2019-02-28T18:30:48.686Z,14.00
2019-02-28T18:33:19.452Z,13.90
2019-02-28T18:35:48.398Z,13.70
2019-02-28T18:38:17.216Z,13.60
2019-02-28T18:40:46.076Z,13.60
2019-02-28T18:43:14.863Z,13.50
2019-02-28T18:45:43.774Z,13.50
2019-02-28T18:48:14.634Z,13.50
2019-02-28T18:50:43.260Z,13.50
2019-02-28T18:53:12.107Z,13.40
2019-02-28T18:55:41.186Z,13.40
2019-02-28T18:58:10.146Z,13.30
2019-02-28T19:00:39.141Z,13.30
2019-02-28T19:03:08.140Z,13.30
2019-02-28T19:05:36.918Z,13.30
2019-02-28T19:08:05.879Z,13.30
2019-02-28T19:10:34.809Z,13.40
2019-02-28T19:13:03.599Z,13.40
2019-02-28T19:15:32.468Z,13.50
2019-02-28T19:18:01.362Z,13.50
2019-02-28T19:20:30.222Z,13.50
2019-02-28T19:22:59.022Z,13.50
2019-02-28T19:25:27.836Z,13.50
2019-02-28T19:27:56.602Z,13.40
2019-02-28T19:30:25.423Z,13.40
2019-02-28T19:32:54.240Z,13.30
2019-02-28T19:35:23.106Z,13.30
2019-02-28T19:37:51.979Z,13.30
2019-02-28T19:40:20.843Z,13.20
2019-02-28T19:42:49.650Z,13.20
2019-02-28T19:45:18.560Z,13.10
2019-02-28T19:47:47.686Z,13.10
2019-02-28T19:50:16.595Z,13.00
2019-02-28T19:52:45.529Z,13.00
2019-02-28T19:55:14.487Z,12.90
2019-02-28T19:57:43.433Z,12.80
2019-02-28T20:00:14.414Z,12.80
2019-02-28T20:02:43.379Z,12.70
2019-02-28T20:05:12.751Z,12.60
2019-02-28T20:07:41.762Z,12.50
2019-02-28T20:10:13.228Z,12.50
2019-02-28T20:12:42.008Z,12.50
2019-02-28T20:15:13.079Z,12.50
2019-02-28T20:17:42.090Z,12.40
2019-02-28T20:20:13.363Z,12.30
2019-02-28T20:22:42.326Z,12.20
2019-02-28T20:25:12.002Z,12.20
2019-02-28T20:27:40.970Z,12.20
2019-02-28T20:30:12.455Z,12.10
2019-02-28T20:32:41.360Z,12.00
2019-02-28T20:35:10.419Z,12.00
2019-02-28T20:37:39.422Z,12.00
2019-02-28T20:40:10.258Z,11.90
2019-02-28T20:42:39.042Z,11.90
2019-02-28T20:45:08.651Z,11.90
2019-02-28T20:47:37.503Z,11.80
2019-02-28T20:50:10.506Z,11.80
2019-02-28T20:52:39.377Z,11.80
2019-02-28T20:55:10.198Z,11.70
2019-02-28T20:57:39.087Z,11.70
2019-02-28T21:00:10.424Z,11.70
2019-02-28T21:02:41.776Z,11.60
2019-02-28T21:05:10.746Z,11.60
2019-02-28T21:07:39.650Z,11.50
2019-02-28T21:10:09.024Z,11.50
2019-02-28T21:12:37.946Z,11.40
2019-02-28T21:15:07.507Z,11.40
2019-02-28T21:17:36.484Z,11.40
2019-02-28T21:20:06.179Z,11.30
2019-02-28T21:22:34.989Z,11.20
2019-02-28T21:25:04.259Z,11.20
2019-02-28T21:27:33.044Z,11.10
2019-02-28T21:30:01.868Z,11.00
2019-02-28T21:32:30.663Z,10.90
2019-02-28T21:34:59.650Z,10.90
2019-02-28T21:37:28.520Z,10.80
2019-02-28T21:40:00.627Z,10.70
2019-02-28T21:42:29.066Z,10.60
2019-02-28T21:44:58.179Z,10.60
2019-02-28T21:47:27.021Z,10.60
2019-02-28T21:49:56.227Z,10.60
2019-02-28T21:52:25.132Z,10.50
2019-02-28T21:54:54.351Z,10.50
2019-02-28T21:57:26.600Z,10.40
2019-02-28T21:59:55.479Z,10.30
2019-02-28T22:02:24.503Z,10.20
2019-02-28T22:04:53.858Z,10.10
2019-02-28T22:07:22.677Z,10.00
2019-02-28T22:09:51.695Z,10.00
2019-02-28T22:12:20.676Z,9.90
2019-02-28T22:14:49.538Z,9.80
2019-02-28T22:17:21.518Z,9.80
2019-02-28T22:19:50.808Z,9.70
2019-02-28T22:22:19.605Z,9.70
2019-02-28T22:24:49.089Z,9.60
2019-02-28T22:27:18.262Z,9.60
2019-02-28T22:29:47.086Z,9.50
2019-02-28T22:32:24.693Z,9.50
2019-02-28T22:35:21.356Z,9.40
2019-02-28T22:37:50.238Z,9.40
2019-02-28T22:40:19.054Z,9.40
2019-02-28T22:42:47.929Z,9.40
2019-02-28T22:45:16.852Z,9.40
2019-02-28T22:47:45.702Z,9.40
2019-02-28T22:50:14.610Z,9.40
2019-02-28T22:52:43.436Z,9.40
2019-02-28T22:55:13.884Z,9.50
2019-02-28T22:57:42.685Z,9.50
2019-02-28T23:00:21.523Z,9.40
2019-02-28T23:02:50.431Z,9.40
2019-02-28T23:05:19.291Z,9.30
2019-02-28T23:07:48.144Z,9.30
2019-02-28T23:10:16.940Z,9.30
2019-02-28T23:12:45.799Z,9.30
2019-02-28T23:15:14.719Z,9.30
2019-02-28T23:17:43.613Z,9.30
2019-02-28T23:20:12.480Z,9.40
2019-02-28T23:22:41.399Z,9.50
2019-02-28T23:25:10.308Z,9.50
2019-02-28T23:27:39.202Z,9.50
2019-02-28T23:30:37.521Z,9.50
2019-02-28T23:33:10.423Z,9.50
2019-02-28T23:35:41.990Z,9.50
2019-02-28T23:38:10.779Z,9.50
2019-02-28T23:40:39.639Z,9.60
2019-02-28T23:43:08.626Z,9.60
2019-02-28T23:45:37.519Z,9.60
2019-02-28T23:48:06.552Z,9.60
2019-02-28T23:50:35.450Z,9.60
2019-02-28T23:53:04.681Z,9.50
2019-02-28T23:55:33.550Z,9.50
2019-02-28T23:58:02.585Z,9.50
